createdAt,value
2019-06-08T00:02:09.906Z,101110.36
2019-06-08T00:04:37.733Z,101111.44
2019-06-08T00:07:05.545Z,101109.64
2019-06-08T00:09:33.307Z,101110.12
2019-06-08T00:12:01.122Z,101110.17
2019-06-08T00:14:30.338Z,101106.26
2019-06-08T00:16:58.198Z,101102.41
2019-06-08T00:19:26.103Z,101089.67
2019-06-08T00:21:53.966Z,101104.70
2019-06-08T00:24:21.940Z,101103.95
2019-06-08T00:26:49.843Z,101102.14
2019-06-08T00:29:18.372Z,101105.67
2019-06-08T00:31:46.331Z,101103.08
2019-06-08T00:34:14.476Z,101106.65
2019-06-08T00:36:42.501Z,101093.92
2019-06-08T00:39:10.502Z,101106.30
2019-06-08T00:41:38.054Z,101118.72
2019-06-08T00:44:05.993Z,101127.95
2019-06-08T00:46:33.727Z,101122.25
2019-06-08T00:49:01.605Z,101133.28
2019-06-08T00:51:29.818Z,101124.09
2019-06-08T00:53:57.664Z,101116.17
2019-06-08T00:56:25.976Z,101124.14
2019-06-08T00:58:53.995Z,101119.34
2019-06-08T01:01:24.238Z,101115.88
2019-06-08T01:03:51.577Z,101114.56
2019-06-08T01:06:20.846Z,101097.50
2019-06-08T01:08:48.854Z,101107.66
2019-06-08T01:11:16.720Z,101112.16
2019-06-08T01:13:44.341Z,101122.28
2019-06-08T01:16:12.126Z,101117.88
2019-06-08T01:18:39.909Z,101115.23
2019-06-08T01:21:07.778Z,101095.39
2019-06-08T01:23:35.619Z,101093.67
2019-06-08T01:26:03.406Z,101091.09
2019-06-08T01:28:31.228Z,101085.45
2019-06-08T01:30:58.796Z,101058.58
2019-06-08T01:33:26.714Z,101067.48
2019-06-08T01:35:54.877Z,101067.08
2019-06-08T01:38:22.960Z,101095.24
2019-06-08T01:40:50.908Z,101099.20
2019-06-08T01:43:18.775Z,101118.10
2019-06-08T01:45:46.438Z,101140.54
2019-06-08T01:48:19.850Z,101123.30
2019-06-08T01:50:43.415Z,101122.91
2019-06-08T01:53:10.911Z,101122.51
2019-06-08T01:55:38.484Z,101115.91
2019-06-08T01:58:06.362Z,101106.27
2019-06-08T02:00:39.486Z,101098.45
2019-06-08T02:03:04.069Z,101089.75
2019-06-08T02:05:32.556Z,101080.95
2019-06-08T02:08:00.357Z,101089.27
2019-06-08T02:10:28.785Z,101091.95
2019-06-08T02:12:56.688Z,101086.28
2019-06-08T02:15:25.176Z,101060.81
2019-06-08T02:17:52.824Z,101087.20
2019-06-08T02:20:20.393Z,101100.41
2019-06-08T02:22:47.901Z,101091.16
2019-06-08T02:25:15.469Z,101096.49
2019-06-08T02:27:43.191Z,101100.98
2019-06-08T02:30:10.940Z,101095.75
2019-06-08T02:32:38.483Z,101104.06
2019-06-08T02:35:06.513Z,101100.20
2019-06-08T02:37:35.368Z,101097.52
2019-06-08T02:40:03.826Z,101103.31
2019-06-08T02:42:33.071Z,101110.01
2019-06-08T02:45:00.823Z,101115.73
2019-06-08T02:47:29.009Z,101120.56
2019-06-08T02:49:57.817Z,101129.89
2019-06-08T02:52:25.345Z,101123.77
2019-06-08T02:54:52.924Z,101115.73
2019-06-08T02:57:20.945Z,101123.77
2019-06-08T02:59:48.464Z,101127.20
2019-06-08T03:02:16.483Z,101135.13
2019-06-08T03:04:44.052Z,101128.19
2019-06-08T03:07:11.616Z,101144.94
2019-06-08T03:09:40.872Z,101138.34
2019-06-08T03:12:08.825Z,101126.08
2019-06-08T03:14:37.679Z,101123.04
2019-06-08T03:17:05.810Z,101133.59
2019-06-08T03:19:33.466Z,101133.16
2019-06-08T03:22:01.038Z,101136.32
2019-06-08T03:24:28.566Z,101139.36
2019-06-08T03:26:56.112Z,101138.91
2019-06-08T03:29:23.657Z,101140.68
2019-06-08T03:31:56.177Z,101146.35
2019-06-08T03:34:20.734Z,101139.75
2019-06-08T03:36:55.726Z,101140.68
2019-06-08T03:39:17.667Z,101138.04
2019-06-08T03:41:45.389Z,101120.09
2019-06-08T03:44:12.933Z,101130.65
2019-06-08T03:46:41.012Z,101133.29
2019-06-08T03:49:09.299Z,101136.32
2019-06-08T03:51:40.234Z,101132.37
2019-06-08T03:54:06.218Z,101136.81
2019-06-08T03:56:35.470Z,101128.80
2019-06-08T03:59:03.297Z,101115.31
2019-06-08T04:01:30.782Z,101116.63
2019-06-08T04:04:00.052Z,101113.99
2019-06-08T04:06:28.077Z,101112.19
2019-06-08T04:08:55.888Z,101110.86
2019-06-08T04:11:23.650Z,101117.03
2019-06-08T04:13:51.620Z,101129.82
2019-06-08T04:16:20.976Z,101123.27
2019-06-08T04:18:50.260Z,101132.50
2019-06-08T04:21:18.089Z,101134.66
2019-06-08T04:23:47.096Z,101129.42
2019-06-08T04:26:15.253Z,101123.67
2019-06-08T04:28:44.730Z,101130.79
2019-06-08T04:31:12.922Z,101139.15
2019-06-08T04:33:42.033Z,101142.70
2019-06-08T04:36:09.987Z,101140.94
2019-06-08T04:38:39.007Z,101139.63
2019-06-08T04:41:07.051Z,101132.11
2019-06-08T04:43:34.812Z,101140.81
2019-06-08T04:46:02.632Z,101145.70
2019-06-08T04:48:30.418Z,101160.60
2019-06-08T04:50:58.219Z,101156.72
2019-06-08T04:53:25.979Z,101144.85
2019-06-08T04:55:53.738Z,101141.30
2019-06-08T04:58:21.698Z,101140.42
2019-06-08T05:00:50.760Z,101139.09
2019-06-08T05:03:18.873Z,101155.71
2019-06-08T05:05:47.612Z,101142.97
2019-06-08T05:08:16.054Z,101138.44
2019-06-08T05:10:45.173Z,101140.19
2019-06-08T05:13:13.209Z,101156.91
2019-06-08T05:15:41.416Z,101156.41
2019-06-08T05:18:09.396Z,101154.57
2019-06-08T05:20:39.238Z,101147.98
2019-06-08T05:23:06.716Z,101153.24
2019-06-08T05:25:34.242Z,101158.53
2019-06-08T05:28:02.043Z,101162.09
2019-06-08T05:30:29.905Z,101157.25
2019-06-08T05:32:57.577Z,101163.41
2019-06-08T05:35:25.380Z,101169.61
2019-06-08T05:37:53.301Z,101167.89
2019-06-08T05:40:21.072Z,101176.69
2019-06-08T05:42:49.965Z,101180.16
2019-06-08T05:45:17.718Z,101188.88
2019-06-08T05:47:45.843Z,101201.62
2019-06-08T05:50:13.997Z,101204.25
2019-06-08T05:52:42.033Z,101209.00
2019-06-08T05:55:09.896Z,101200.64
2019-06-08T05:57:37.664Z,101204.20
2019-06-08T06:00:09.223Z,101209.48
2019-06-08T06:02:35.652Z,101209.40
2019-06-08T06:05:03.672Z,101198.05
2019-06-08T06:07:31.141Z,101198.97
2019-06-08T06:09:58.658Z,101199.42
2019-06-08T06:12:26.163Z,101201.61
2019-06-08T06:14:53.655Z,101209.98
2019-06-08T06:17:21.158Z,101208.20
2019-06-08T06:19:49.239Z,101198.05
2019-06-08T06:22:16.858Z,101201.09
2019-06-08T06:24:45.505Z,101202.36
2019-06-08T06:27:13.281Z,101205.80
2019-06-08T06:29:41.415Z,101205.26
2019-06-08T06:32:09.222Z,101210.89
2019-06-08T06:34:36.936Z,101213.48
2019-06-08T06:37:04.857Z,101218.76
2019-06-08T06:39:32.355Z,101224.39
2019-06-08T06:41:59.844Z,101216.87
2019-06-08T06:44:27.374Z,101215.95
2019-06-08T06:46:54.876Z,101219.86
2019-06-08T06:49:22.423Z,101226.91
2019-06-08T06:51:50.534Z,101220.73
2019-06-08T06:54:18.128Z,101213.17
2019-06-08T06:56:45.644Z,101221.48
2019-06-08T06:59:13.137Z,101224.52
2019-06-08T07:01:40.660Z,101226.77
2019-06-08T07:04:08.234Z,101233.36
2019-06-08T07:06:35.722Z,101238.59
2019-06-08T07:09:04.710Z,101234.59
2019-06-08T07:11:32.202Z,101249.11
2019-06-08T07:13:59.698Z,101238.55
2019-06-08T07:16:27.224Z,101244.23
2019-06-08T07:18:54.791Z,101245.02
2019-06-08T07:21:22.360Z,101249.20
2019-06-08T07:23:51.173Z,101233.61
2019-06-08T07:26:19.091Z,101263.01
2019-06-08T07:28:48.052Z,101255.39
2019-06-08T07:31:15.967Z,101258.88
2019-06-08T07:33:43.723Z,101252.80
2019-06-08T07:36:11.749Z,101254.69
2019-06-08T07:38:39.561Z,101261.78
2019-06-08T07:41:07.222Z,101262.13
2019-06-08T07:43:35.091Z,101268.29
2019-06-08T07:46:02.853Z,101292.93
2019-06-08T07:48:30.411Z,101278.33
2019-06-08T07:50:58.441Z,101276.96
2019-06-08T07:53:26.092Z,101277.84
2019-06-08T07:55:54.163Z,101283.21
2019-06-08T07:58:21.698Z,101295.61
2019-06-08T08:00:50.444Z,101286.46
2019-06-08T08:03:18.698Z,101294.38
2019-06-08T08:05:46.223Z,101306.22
2019-06-08T08:08:13.758Z,101289.50
2019-06-08T08:10:41.244Z,101298.70
2019-06-08T08:13:08.765Z,101299.09
2019-06-08T08:15:36.277Z,101314.98
2019-06-08T08:18:03.807Z,101305.82
2019-06-08T08:20:31.286Z,101310.27
2019-06-08T08:23:05.578Z,101330.59
2019-06-08T08:25:28.291Z,101321.31
2019-06-08T08:27:57.800Z,101319.91
2019-06-08T08:30:25.379Z,101328.31
2019-06-08T08:32:54.587Z,101323.64
2019-06-08T08:35:22.586Z,101329.36
2019-06-08T08:37:55.136Z,101332.45
2019-06-08T08:40:20.103Z,101329.02
2019-06-08T08:42:48.275Z,101329.05
2019-06-08T08:45:18.386Z,101331.30
2019-06-08T08:47:48.339Z,101333.98
2019-06-08T08:50:18.235Z,101341.50
2019-06-08T08:52:47.564Z,101343.70
2019-06-08T08:55:20.250Z,101351.22
2019-06-08T08:57:45.099Z,101354.38
2019-06-08T09:00:12.886Z,101362.78
2019-06-08T09:02:40.468Z,101360.27
2019-06-08T09:05:08.753Z,101361.58
2019-06-08T09:07:38.550Z,101365.59
2019-06-08T09:10:08.529Z,101371.78
2019-06-08T09:12:37.698Z,101382.78
2019-06-08T09:15:08.300Z,101384.55
2019-06-08T09:17:35.150Z,101383.70
2019-06-08T09:20:03.834Z,101379.74
2019-06-08T09:22:31.753Z,101396.02
2019-06-08T09:25:03.183Z,101395.22
2019-06-08T09:27:29.128Z,101400.54
2019-06-08T09:29:59.701Z,101408.89
2019-06-08T09:32:28.197Z,101402.78
2019-06-08T09:34:59.179Z,101414.65
2019-06-08T09:37:25.186Z,101403.62
2019-06-08T09:39:53.948Z,101415.89
2019-06-08T09:42:21.907Z,101414.13
2019-06-08T09:44:49.431Z,101420.29
2019-06-08T09:47:18.178Z,101424.29
2019-06-08T09:49:47.889Z,101418.13
2019-06-08T09:52:18.198Z,101433.89
2019-06-08T09:54:45.070Z,101428.97
2019-06-08T09:57:12.835Z,101441.56
2019-06-08T09:59:40.493Z,101445.89
2019-06-08T10:02:12.458Z,101432.61
2019-06-08T10:04:38.708Z,101436.92
2019-06-08T10:07:08.862Z,101443.88
2019-06-08T10:09:38.106Z,101443.45
2019-06-08T10:12:09.617Z,101446.61
2019-06-08T10:14:38.009Z,101461.28
2019-06-08T10:17:06.625Z,101460.56
2019-06-08T10:19:35.407Z,101459.32
2019-06-08T10:22:03.062Z,101465.08
2019-06-08T10:24:30.735Z,101477.07
2019-06-08T10:26:59.386Z,101477.55
2019-06-08T10:29:27.379Z,101498.27
2019-06-08T10:31:55.230Z,101499.09
2019-06-08T10:34:23.030Z,101486.62
2019-06-08T10:36:50.521Z,101495.67
2019-06-08T10:39:18.019Z,101498.68
2019-06-08T10:41:51.260Z,101496.80
2019-06-08T10:44:15.353Z,101507.33
2019-06-08T10:46:42.960Z,101504.61
2019-06-08T10:49:14.227Z,101506.69
2019-06-08T10:51:40.990Z,101509.69
2019-06-08T10:54:10.959Z,101514.97
2019-06-08T10:56:38.640Z,101520.17
2019-06-08T10:59:09.951Z,101512.29
2019-06-08T11:01:38.406Z,101524.28
2019-06-08T11:04:06.964Z,101532.72
2019-06-08T11:06:34.745Z,101525.33
2019-06-08T11:09:07.177Z,101532.52
2019-06-08T11:11:31.743Z,101545.83
2019-06-08T11:14:00.956Z,101530.91
2019-06-08T11:16:28.832Z,101543.78
2019-06-08T11:18:59.066Z,101543.85
2019-06-08T11:21:25.791Z,101539.48
2019-06-08T11:24:07.558Z,101543.89
2019-06-08T11:26:24.588Z,101547.92
2019-06-08T11:28:53.029Z,101549.24
2019-06-08T11:31:20.626Z,101545.28
2019-06-08T11:33:49.057Z,101556.72
2019-06-08T11:36:18.929Z,101558.15
2019-06-08T11:38:47.783Z,101556.75
2019-06-08T11:41:17.902Z,101561.19
2019-06-08T11:43:45.437Z,101548.91
2019-06-08T11:46:12.937Z,101572.73
2019-06-08T11:48:41.521Z,101553.45
2019-06-08T11:51:12.603Z,101549.06
2019-06-08T11:53:38.723Z,101562.73
2019-06-08T11:56:09.044Z,101555.73
2019-06-08T11:58:38.531Z,101566.28
2019-06-08T12:01:11.609Z,101564.89
2019-06-08T12:03:38.759Z,101570.24
2019-06-08T12:06:09.453Z,101575.99
2019-06-08T12:08:37.984Z,101566.39
2019-06-08T12:11:09.743Z,101575.19
2019-06-08T12:13:35.123Z,101581.78
2019-06-08T12:16:03.116Z,101579.55
2019-06-08T12:18:30.760Z,101584.31
2019-06-08T12:21:01.308Z,101579.92
2019-06-08T12:23:27.725Z,101581.64
2019-06-08T12:25:56.099Z,101584.69
2019-06-08T12:28:23.659Z,101574.09
2019-06-08T12:30:51.195Z,101586.92
2019-06-08T12:33:20.874Z,101583.44
2019-06-08T12:35:48.092Z,101590.03
2019-06-08T12:38:16.519Z,101575.99
2019-06-08T12:40:44.981Z,101586.55
2019-06-08T12:43:13.228Z,101585.73
2019-06-08T12:45:41.862Z,101598.49
2019-06-08T12:48:14.616Z,101585.81
2019-06-08T12:50:38.803Z,101588.92
2019-06-08T12:53:11.884Z,101587.56
2019-06-08T12:55:37.721Z,101588.45
2019-06-08T12:58:05.194Z,101599.41
2019-06-08T13:00:32.689Z,101604.68
2019-06-08T13:03:00.208Z,101609.15
2019-06-08T13:05:27.725Z,101600.80
2019-06-08T13:07:55.269Z,101602.63
2019-06-08T13:10:24.207Z,101593.39
2019-06-08T13:12:52.097Z,101582.77
2019-06-08T13:15:21.910Z,101585.23
2019-06-08T13:17:50.605Z,101589.92
2019-06-08T13:20:22.099Z,101596.56
2019-06-08T13:22:48.348Z,101598.39
2019-06-08T13:25:31.983Z,101597.55
2019-06-08T13:27:45.325Z,101602.41
2019-06-08T13:30:17.206Z,101604.24
2019-06-08T13:32:42.359Z,101597.20
2019-06-08T13:35:10.550Z,101601.61
2019-06-08T13:37:39.054Z,101599.70
2019-06-08T13:40:08.162Z,101605.58
2019-06-08T13:42:38.174Z,101592.02
2019-06-08T13:45:07.515Z,101601.41
2019-06-08T13:47:38.242Z,101593.39
2019-06-08T13:50:05.980Z,101592.36
2019-06-08T13:52:33.476Z,101614.73
2019-06-08T13:55:00.981Z,101601.68
2019-06-08T13:57:28.764Z,101602.67
2019-06-08T13:59:57.821Z,101615.44
2019-06-08T14:02:29.094Z,101613.28
2019-06-08T14:04:55.274Z,101627.84
2019-06-08T14:07:27.396Z,101613.23
2019-06-08T14:09:53.003Z,101627.02
2019-06-08T14:12:23.222Z,101632.84
2019-06-08T14:14:50.580Z,101632.28
2019-06-08T14:17:20.897Z,101622.59
2019-06-08T14:19:48.354Z,101622.55
2019-06-08T14:22:21.386Z,101611.94
2019-06-08T14:24:47.897Z,101641.00
2019-06-08T14:27:15.647Z,101614.66
2019-06-08T14:29:43.307Z,101624.83
2019-06-08T14:32:11.171Z,101621.30
2019-06-08T14:34:38.956Z,101607.75
2019-06-08T14:37:08.611Z,101610.97
2019-06-08T14:39:36.616Z,101623.53
2019-06-08T14:42:04.428Z,101623.95
2019-06-08T14:44:34.007Z,101603.15
2019-06-08T14:47:13.225Z,101601.02
2019-06-08T14:49:42.595Z,101634.86
2019-06-08T14:52:10.849Z,101639.16
2019-06-08T14:54:38.872Z,101621.88
2019-06-08T14:57:07.853Z,101625.53
2019-06-08T14:59:35.933Z,101635.84
2019-06-08T15:02:03.841Z,101639.55
2019-06-08T15:04:36.026Z,101638.10
2019-06-08T15:07:01.267Z,101658.20
2019-06-08T15:09:29.874Z,101647.91
2019-06-08T15:11:58.355Z,101658.42
2019-06-08T15:14:29.262Z,101659.42
2019-06-08T15:16:55.799Z,101650.36
2019-06-08T15:19:24.416Z,101652.73
2019-06-08T15:21:52.129Z,101661.87
2019-06-08T15:24:20.650Z,101661.86
2019-06-08T15:26:49.042Z,101666.12
2019-06-08T15:29:16.769Z,101663.22
2019-06-08T15:31:44.263Z,101665.67
2019-06-08T15:34:11.765Z,101668.04
2019-06-08T15:36:39.260Z,101676.09
2019-06-08T15:39:07.841Z,101656.39
2019-06-08T15:41:35.499Z,101672.85
2019-06-08T15:44:02.993Z,101665.13
2019-06-08T15:46:30.537Z,101673.77
2019-06-08T15:51:26.206Z,101685.14
2019-06-08T15:53:54.504Z,101684.01
2019-06-08T15:56:37.497Z,101697.81
2019-06-08T15:58:51.739Z,101719.94
2019-06-08T16:01:19.222Z,101725.27
2019-06-08T16:03:46.777Z,101716.93
2019-06-08T16:06:14.262Z,101719.98
2019-06-08T16:08:41.790Z,101726.14
2019-06-08T16:11:09.276Z,101722.70
2019-06-08T16:13:36.829Z,101722.03
2019-06-08T16:16:04.571Z,101730.50
2019-06-08T16:18:32.129Z,101724.81
2019-06-08T16:20:59.998Z,101710.25
2019-06-08T16:23:27.760Z,101708.89
2019-06-08T16:25:55.326Z,101721.66
2019-06-08T16:28:22.852Z,101719.46
2019-06-08T16:30:50.341Z,101719.06
2019-06-08T16:33:17.864Z,101717.55
2019-06-08T16:35:45.376Z,101730.48
2019-06-08T16:38:12.969Z,101718.27
2019-06-08T16:40:40.553Z,101721.06
2019-06-08T16:45:35.259Z,101727.78
2019-06-08T16:48:02.856Z,101725.23
2019-06-08T16:50:30.464Z,101726.66
2019-06-08T16:52:58.083Z,101724.20
2019-06-08T16:55:25.580Z,101729.50
2019-06-08T16:57:53.087Z,101722.61
2019-06-08T17:00:39.916Z,101734.06
2019-06-08T17:02:50.151Z,101752.73
2019-06-08T17:05:17.710Z,101760.19
2019-06-08T17:07:45.491Z,101756.41
2019-06-08T17:10:13.477Z,101755.56
2019-06-08T17:12:41.216Z,101770.17
2019-06-08T17:15:08.696Z,101777.38
2019-06-08T17:17:36.684Z,101772.30
2019-06-08T17:20:05.107Z,101797.17
2019-06-08T17:22:32.769Z,101797.86
2019-06-08T17:25:00.314Z,101819.59
2019-06-08T17:27:27.912Z,101826.23
2019-06-08T17:29:55.484Z,101816.31
2019-06-08T17:32:22.988Z,101808.92
2019-06-08T17:34:50.785Z,101807.23
2019-06-08T17:37:18.280Z,101794.06
2019-06-08T17:39:45.825Z,101795.83
2019-06-08T17:42:13.674Z,101795.89
2019-06-08T17:44:42.481Z,101817.48
2019-06-08T17:47:10.141Z,101832.16
2019-06-08T17:49:38.671Z,101819.09
2019-06-08T17:52:06.273Z,101829.78
2019-06-08T17:54:34.676Z,101835.66
2019-06-08T17:57:02.493Z,101841.49
2019-06-08T17:59:30.017Z,101824.87
2019-06-08T18:01:57.577Z,101821.88
2019-06-08T18:04:25.080Z,101828.53
2019-06-08T18:06:52.702Z,101836.52
2019-06-08T18:09:20.197Z,101876.20
2019-06-08T18:11:48.062Z,101864.83
2019-06-08T18:14:18.024Z,101842.49
2019-06-08T18:16:47.822Z,101820.07
2019-06-08T18:19:24.660Z,101826.20
2019-06-08T18:21:52.270Z,101803.34
2019-06-08T18:24:19.743Z,101808.64
2019-06-08T18:26:47.528Z,101809.58
2019-06-08T18:29:15.156Z,101804.36
2019-06-08T18:31:43.970Z,101804.86
2019-06-08T18:34:11.981Z,101808.47
2019-06-08T18:36:40.702Z,101812.86
2019-06-08T18:39:08.878Z,101812.56
2019-06-08T18:41:39.029Z,101816.00
2019-06-08T18:44:08.378Z,101817.07
2019-06-08T18:46:37.575Z,101824.93
2019-06-08T18:49:08.045Z,101830.23
2019-06-08T18:51:37.764Z,101825.39
2019-06-08T18:54:12.915Z,101830.41
2019-06-08T18:56:36.305Z,101837.50
2019-06-08T18:59:03.893Z,101825.41
2019-06-08T19:01:31.469Z,101834.52
2019-06-08T19:03:59.012Z,101830.93
2019-06-08T19:06:27.875Z,101827.81
2019-06-08T19:08:57.782Z,101822.53
2019-06-08T19:11:24.842Z,101812.55
2019-06-08T19:13:54.212Z,101824.59
2019-06-08T19:16:21.904Z,101819.47
2019-06-08T19:18:52.709Z,101823.56
2019-06-08T19:21:18.861Z,101829.81
2019-06-08T19:23:49.202Z,101832.52
2019-06-08T19:26:17.221Z,101833.02
2019-06-08T19:28:47.796Z,101841.47
2019-06-08T19:31:14.444Z,101833.60
2019-06-08T19:33:41.932Z,101842.93
2019-06-08T19:36:09.445Z,101847.91
2019-06-08T19:38:38.423Z,101843.61
2019-06-08T19:41:08.152Z,101846.36
2019-06-08T19:43:38.524Z,101842.96
2019-06-08T19:46:07.209Z,101839.56
2019-06-08T19:48:34.582Z,101839.23
2019-06-08T19:51:02.080Z,101843.72
2019-06-08T19:53:29.645Z,101840.31
2019-06-08T19:55:57.238Z,101859.23
2019-06-08T19:58:24.868Z,101860.64
2019-06-08T20:00:54.585Z,101861.59
2019-06-08T20:03:21.814Z,101869.97
2019-06-08T20:05:51.637Z,101870.49
2019-06-08T20:08:18.803Z,101868.81
2019-06-08T20:10:48.030Z,101879.41
2019-06-08T20:13:15.754Z,101868.94
2019-06-08T20:15:47.328Z,101876.41
2019-06-08T20:18:12.834Z,101875.61
2019-06-08T20:20:41.956Z,101880.02
2019-06-08T20:23:09.859Z,101877.44
2019-06-08T20:25:38.152Z,101881.00
2019-06-08T20:28:07.941Z,101883.66
2019-06-08T20:30:35.372Z,101894.24
2019-06-08T20:33:02.916Z,101885.52
2019-06-08T20:35:30.444Z,101896.09
2019-06-08T20:37:58.060Z,101904.50
2019-06-08T20:40:27.951Z,101908.91
2019-06-08T20:42:55.054Z,101909.40
2019-06-08T20:45:22.605Z,101909.44
2019-06-08T20:47:52.021Z,101911.22
2019-06-08T20:50:19.528Z,101916.95
2019-06-08T20:52:49.299Z,101919.61
2019-06-08T20:55:17.568Z,101920.97
2019-06-08T20:57:45.229Z,101925.41
2019-06-08T21:00:12.961Z,101924.55
2019-06-08T21:02:40.459Z,101925.04
2019-06-08T21:05:08.022Z,101925.47
2019-06-08T21:07:35.620Z,101928.13
2019-06-08T21:10:03.139Z,101936.93
2019-06-08T21:12:30.707Z,101933.00
2019-06-08T21:14:58.205Z,101931.73
2019-06-08T21:17:27.525Z,101938.78
2019-06-08T21:19:57.755Z,101929.58
2019-06-08T21:22:24.787Z,101936.19
2019-06-08T21:24:53.954Z,101940.62
2019-06-08T21:27:21.637Z,101948.52
2019-06-08T21:29:59.103Z,101945.02
2019-06-08T21:32:21.543Z,101946.81
2019-06-08T21:34:50.834Z,101956.95
2019-06-08T21:37:18.626Z,101952.11
2019-06-08T21:39:50.433Z,101963.13
2019-06-08T21:42:15.690Z,101960.52
2019-06-08T21:44:43.241Z,101967.53
2019-06-08T21:47:10.785Z,101969.32
2019-06-08T21:49:38.616Z,101965.39
2019-06-08T21:52:07.309Z,101968.45
2019-06-08T21:54:37.210Z,101967.62
2019-06-08T21:57:06.729Z,101972.44
2019-06-08T21:59:33.876Z,101972.51
2019-06-08T22:02:03.906Z,101967.24
2019-06-08T22:04:30.938Z,101977.36
2019-06-08T22:06:59.723Z,101977.38
2019-06-08T22:09:28.503Z,101980.01
2019-06-08T22:11:59.173Z,101979.13
2019-06-08T22:14:27.344Z,101984.41
2019-06-08T22:16:55.571Z,101985.30
2019-06-08T22:19:24.459Z,101981.80
2019-06-08T22:21:52.528Z,101981.36
2019-06-08T22:24:21.280Z,101987.52
2019-06-08T22:26:48.792Z,101985.34
2019-06-08T22:29:18.233Z,101989.27
2019-06-08T22:31:47.552Z,101984.47
2019-06-08T22:34:17.312Z,101992.80
2019-06-08T22:36:44.603Z,101988.42
2019-06-08T22:39:12.143Z,101992.80
2019-06-08T22:41:39.692Z,101991.97
2019-06-08T22:44:08.281Z,101997.66
2019-06-08T22:46:37.524Z,101994.16
2019-06-08T22:49:07.843Z,101994.62
2019-06-08T22:51:34.637Z,101994.64
2019-06-08T22:54:02.714Z,102000.80
2019-06-08T22:56:31.473Z,101994.65
2019-06-08T22:59:04.139Z,101991.17
2019-06-08T23:01:30.318Z,101993.75
2019-06-08T23:04:00.958Z,102000.83
2019-06-08T23:06:28.090Z,102004.36
2019-06-08T23:08:59.756Z,102010.04
2019-06-08T23:11:25.182Z,102010.94
2019-06-08T23:13:52.700Z,102008.75
2019-06-08T23:16:20.230Z,102005.28
2019-06-08T23:18:47.973Z,102013.61
2019-06-08T23:21:17.915Z,102017.55
2019-06-08T23:23:47.483Z,102016.72
2019-06-08T23:26:14.404Z,102016.27
2019-06-08T23:28:41.948Z,102014.53
2019-06-08T23:31:21.632Z,102013.70
2019-06-08T23:33:38.953Z,102015.00
2019-06-08T23:36:40.547Z,102017.64
2019-06-08T23:38:37.382Z,102022.89
2019-06-08T23:41:05.614Z,102019.81
2019-06-08T23:43:33.305Z,102023.80
2019-06-08T23:46:02.293Z,102020.70
2019-06-08T23:48:29.968Z,102025.98
2019-06-08T23:50:57.892Z,102022.52
2019-06-08T23:53:27.492Z,102029.09
2019-06-08T23:55:55.121Z,102026.48
2019-06-08T23:58:22.638Z,102030.86
